sensor_id;sensor_type;location;lat;lon;timestamp;pressure;altitude;pressure_sealevel;temperature;humidity
64602;BME280;51013;42.630;23.192;2023-02-19T00:01:18;92621.78;;;10.25;46.49
64602;BME280;51013;42.630;23.192;2023-02-19T00:03:48;92606.66;;;10.21;45.94
64602;BME280;51013;42.630;23.192;2023-02-19T00:06:17;92623.84;;;10.19;45.89
64602;BME280;51013;42.630;23.192;2023-02-19T00:08:44;92623.41;;;10.29;45.20
64602;BME280;51013;42.630;23.192;2023-02-19T00:11:12;92551.84;;;9.95;45.01
64602;BME280;51013;42.630;23.192;2023-02-19T00:13:42;92594.63;;;10.20;45.41
64602;BME280;51013;42.630;23.192;2023-02-19T00:16:13;92612.25;;;10.20;45.70
64602;BME280;51013;42.630;23.192;2023-02-19T00:18:41;92615.97;;;10.19;46.17
64602;BME280;51013;42.630;23.192;2023-02-19T00:21:09;92605.44;;;10.07;46.20
64602;BME280;51013;42.630;23.192;2023-02-19T00:23:36;92610.94;;;10.14;46.46
64602;BME280;51013;42.630;23.192;2023-02-19T00:26:04;92615.31;;;10.10;45.94
64602;BME280;51013;42.630;23.192;2023-02-19T00:28:32;92608.06;;;10.07;46.59
64602;BME280;51013;42.630;23.192;2023-02-19T00:31:03;92601.41;;;10.09;47.13
64602;BME280;51013;42.630;23.192;2023-02-19T00:33:32;92595.25;;;9.93;47.45
64602;BME280;51013;42.630;23.192;2023-02-19T00:35:59;92568.34;;;9.71;47.04
64602;BME280;51013;42.630;23.192;2023-02-19T00:38:26;92594.19;;;9.94;46.85
64602;BME280;51013;42.630;23.192;2023-02-19T00:40:53;92591.19;;;9.95;46.77
64602;BME280;51013;42.630;23.192;2023-02-19T00:43:19;92589.91;;;10.01;46.74
64602;BME280;51013;42.630;23.192;2023-02-19T00:45:46;92594.72;;;9.99;46.21
64602;BME280;51013;42.630;23.192;2023-02-19T00:48:13;92598.00;;;9.96;46.57
64602;BME280;51013;42.630;23.192;2023-02-19T00:50:41;92590.66;;;9.90;46.71
64602;BME280;51013;42.630;23.192;2023-02-19T00:53:08;92595.13;;;9.89;46.45
64602;BME280;51013;42.630;23.192;2023-02-19T00:55:35;92584.53;;;9.86;46.84
64602;BME280;51013;42.630;23.192;2023-02-19T00:58:02;92584.16;;;9.75;47.35
64602;BME280;51013;42.630;23.192;2023-02-19T01:00:28;92571.16;;;9.66;47.16
64602;BME280;51013;42.630;23.192;2023-02-19T01:02:55;92588.00;;;9.65;47.49
64602;BME280;51013;42.630;23.192;2023-02-19T01:05:22;92594.19;;;9.60;47.86
64602;BME280;51013;42.630;23.192;2023-02-19T01:07:50;92608.03;;;9.49;47.72
64602;BME280;51013;42.630;23.192;2023-02-19T01:10:16;92589.97;;;9.35;47.84
64602;BME280;51013;42.630;23.192;2023-02-19T01:12:44;92597.31;;;9.41;48.40
64602;BME280;51013;42.630;23.192;2023-02-19T01:15:10;92584.31;;;9.45;47.90
64602;BME280;51013;42.630;23.192;2023-02-19T01:17:37;92577.69;;;9.27;48.03
64602;BME280;51013;42.630;23.192;2023-02-19T01:20:04;92586.78;;;9.29;48.66
64602;BME280;51013;42.630;23.192;2023-02-19T01:22:31;92582.69;;;8.98;48.23
64602;BME280;51013;42.630;23.192;2023-02-19T01:24:59;92584.94;;;9.09;48.63
64602;BME280;51013;42.630;23.192;2023-02-19T01:27:26;92584.50;;;9.07;48.48
64602;BME280;51013;42.630;23.192;2023-02-19T01:29:52;92598.81;;;8.88;49.04
64602;BME280;51013;42.630;23.192;2023-02-19T01:32:19;92587.06;;;8.94;49.29
64602;BME280;51013;42.630;23.192;2023-02-19T01:34:46;92593.09;;;9.07;49.40
64602;BME280;51013;42.630;23.192;2023-02-19T01:37:12;92590.94;;;9.09;48.77
64602;BME280;51013;42.630;23.192;2023-02-19T01:39:39;92583.84;;;8.89;49.14
64602;BME280;51013;42.630;23.192;2023-02-19T01:42:12;92595.81;;;8.98;49.22
64602;BME280;51013;42.630;23.192;2023-02-19T01:47:57;92608.00;;;8.94;49.37
64602;BME280;51013;42.630;23.192;2023-02-19T01:50:27;92606.69;;;8.79;49.66
64602;BME280;51013;42.630;23.192;2023-02-19T01:52:55;92617.84;;;8.68;49.97
64602;BME280;51013;42.630;23.192;2023-02-19T01:55:22;92618.03;;;8.41;50.38
64602;BME280;51013;42.630;23.192;2023-02-19T01:57:53;92616.63;;;8.35;50.68
64602;BME280;51013;42.630;23.192;2023-02-19T02:00:21;92623.50;;;8.49;50.71
64602;BME280;51013;42.630;23.192;2023-02-19T02:02:51;92630.63;;;8.39;50.73
64602;BME280;51013;42.630;23.192;2023-02-19T02:05:27;92625.09;;;8.41;50.78
64602;BME280;51013;42.630;23.192;2023-02-19T02:07:59;92625.81;;;8.50;52.82
64602;BME280;51013;42.630;23.192;2023-02-19T02:10:45;92625.06;;;8.50;54.18
64602;BME280;51013;42.630;23.192;2023-02-19T02:13:13;92611.22;;;8.40;55.46
64602;BME280;51013;42.630;23.192;2023-02-19T02:15:49;92594.50;;;7.86;57.30
64602;BME280;51013;42.630;23.192;2023-02-19T02:18:25;92626.00;;;7.98;57.18
64602;BME280;51013;42.630;23.192;2023-02-19T02:26:56;92627.59;;;7.64;57.23
64602;BME280;51013;42.630;23.192;2023-02-19T02:29:49;92633.47;;;7.61;59.56
64602;BME280;51013;42.630;23.192;2023-02-19T02:32:24;92631.78;;;7.56;59.82
64602;BME280;51013;42.630;23.192;2023-02-19T02:34:53;92637.31;;;7.37;61.08
64602;BME280;51013;42.630;23.192;2023-02-19T02:37:22;92641.94;;;7.23;61.74
64602;BME280;51013;42.630;23.192;2023-02-19T02:39:51;92640.25;;;7.18;61.66
64602;BME280;51013;42.630;23.192;2023-02-19T02:42:19;92644.25;;;6.98;62.42
64602;BME280;51013;42.630;23.192;2023-02-19T02:44:57;92645.47;;;6.92;63.38
64602;BME280;51013;42.630;23.192;2023-02-19T02:47:43;92652.78;;;6.64;64.67
64602;BME280;51013;42.630;23.192;2023-02-19T02:50:17;92650.75;;;6.52;65.63
64602;BME280;51013;42.630;23.192;2023-02-19T02:52:45;92649.53;;;6.50;65.56
64602;BME280;51013;42.630;23.192;2023-02-19T02:55:35;92643.47;;;6.32;66.29
64602;BME280;51013;42.630;23.192;2023-02-19T02:58:02;92644.09;;;6.29;65.77
64602;BME280;51013;42.630;23.192;2023-02-19T03:00:32;92646.69;;;6.29;66.20
64602;BME280;51013;42.630;23.192;2023-02-19T03:03:16;92644.84;;;6.29;65.78
64602;BME280;51013;42.630;23.192;2023-02-19T03:05:47;92652.50;;;6.26;66.14
64602;BME280;51013;42.630;23.192;2023-02-19T03:08:22;92651.56;;;6.21;66.23
64602;BME280;51013;42.630;23.192;2023-02-19T03:10:54;92656.94;;;6.16;66.97
64602;BME280;51013;42.630;23.192;2023-02-19T03:13:28;92665.66;;;6.12;66.53
64602;BME280;51013;42.630;23.192;2023-02-19T03:16:19;92668.22;;;6.03;65.80
64602;BME280;51013;42.630;23.192;2023-02-19T03:19:07;92658.50;;;5.95;66.37
64602;BME280;51013;42.630;23.192;2023-02-19T03:21:51;92667.94;;;5.82;67.55
64602;BME280;51013;42.630;23.192;2023-02-19T03:24:23;92670.06;;;5.80;67.33
64602;BME280;51013;42.630;23.192;2023-02-19T03:27:09;92675.81;;;5.68;66.92
64602;BME280;51013;42.630;23.192;2023-02-19T03:29:39;92658.53;;;5.50;67.00
64602;BME280;51013;42.630;23.192;2023-02-19T03:32:12;92687.59;;;5.66;67.64
64602;BME280;51013;42.630;23.192;2023-02-19T03:34:43;92696.31;;;5.61;68.33
64602;BME280;51013;42.630;23.192;2023-02-19T03:37:15;92696.84;;;5.49;67.67
64602;BME280;51013;42.630;23.192;2023-02-19T03:39:42;92699.44;;;5.49;67.58
64602;BME280;51013;42.630;23.192;2023-02-19T03:42:18;92697.31;;;5.51;68.40
64602;BME280;51013;42.630;23.192;2023-02-19T03:44:54;92711.75;;;5.35;68.00
64602;BME280;51013;42.630;23.192;2023-02-19T03:47:26;92692.09;;;5.15;68.04
64602;BME280;51013;42.630;23.192;2023-02-19T03:49:58;92711.19;;;5.24;68.49
64602;BME280;51013;42.630;23.192;2023-02-19T03:52:35;92708.22;;;5.17;68.67
64602;BME280;51013;42.630;23.192;2023-02-19T03:55:07;92712.19;;;5.00;68.63
64602;BME280;51013;42.630;23.192;2023-02-19T03:57:44;92700.75;;;4.88;69.11
64602;BME280;51013;42.630;23.192;2023-02-19T04:00:17;92707.13;;;4.68;70.46
64602;BME280;51013;42.630;23.192;2023-02-19T04:02:48;92701.44;;;4.66;71.27
64602;BME280;51013;42.630;23.192;2023-02-19T04:05:18;92686.16;;;4.50;70.22
64602;BME280;51013;42.630;23.192;2023-02-19T04:07:48;92695.13;;;4.44;71.28
64602;BME280;51013;42.630;23.192;2023-02-19T04:10:17;92703.75;;;4.39;71.96
64602;BME280;51013;42.630;23.192;2023-02-19T04:12:48;92713.28;;;4.16;73.53
64602;BME280;51013;42.630;23.192;2023-02-19T04:15:19;92711.41;;;4.03;73.55
64602;BME280;51013;42.630;23.192;2023-02-19T04:17:52;92714.22;;;4.07;73.82
64602;BME280;51013;42.630;23.192;2023-02-19T04:20:21;92710.97;;;4.15;73.71
64602;BME280;51013;42.630;23.192;2023-02-19T04:22:50;92716.44;;;4.13;74.24
64602;BME280;51013;42.630;23.192;2023-02-19T04:25:17;92711.03;;;3.96;73.81
64602;BME280;51013;42.630;23.192;2023-02-19T04:27:45;92717.56;;;3.93;74.49
64602;BME280;51013;42.630;23.192;2023-02-19T04:30:13;92718.22;;;3.85;74.28
64602;BME280;51013;42.630;23.192;2023-02-19T04:32:39;92724.03;;;3.96;73.97
64602;BME280;51013;42.630;23.192;2023-02-19T04:35:08;92726.91;;;3.94;74.13
64602;BME280;51013;42.630;23.192;2023-02-19T04:37:34;92718.03;;;3.81;75.38
64602;BME280;51013;42.630;23.192;2023-02-19T04:40:01;92727.88;;;3.66;75.03
64602;BME280;51013;42.630;23.192;2023-02-19T04:42:28;92703.91;;;3.55;75.51
64602;BME280;51013;42.630;23.192;2023-02-19T04:44:55;92720.69;;;3.44;76.83
64602;BME280;51013;42.630;23.192;2023-02-19T04:47:22;92731.63;;;3.40;76.74
64602;BME280;51013;42.630;23.192;2023-02-19T04:49:48;92729.81;;;3.41;76.56
64602;BME280;51013;42.630;23.192;2023-02-19T04:52:16;92729.03;;;3.40;76.39
64602;BME280;51013;42.630;23.192;2023-02-19T04:54:43;92738.66;;;3.40;76.89
64602;BME280;51013;42.630;23.192;2023-02-19T04:57:10;92730.09;;;3.39;77.13
64602;BME280;51013;42.630;23.192;2023-02-19T04:59:36;92733.41;;;3.45;77.10
64602;BME280;51013;42.630;23.192;2023-02-19T05:02:03;92734.44;;;3.44;76.50
64602;BME280;51013;42.630;23.192;2023-02-19T05:04:30;92741.19;;;3.45;76.69
64602;BME280;51013;42.630;23.192;2023-02-19T05:06:56;92732.75;;;3.34;76.55
64602;BME280;51013;42.630;23.192;2023-02-19T05:09:25;92737.41;;;3.37;77.02
64602;BME280;51013;42.630;23.192;2023-02-19T05:11:51;92737.13;;;3.39;77.53
64602;BME280;51013;42.630;23.192;2023-02-19T05:14:18;92746.81;;;3.33;76.80
64602;BME280;51013;42.630;23.192;2023-02-19T05:16:45;92746.31;;;3.31;76.81
64602;BME280;51013;42.630;23.192;2023-02-19T05:19:11;92733.38;;;3.26;77.35
64602;BME280;51013;42.630;23.192;2023-02-19T05:21:38;92746.63;;;3.06;79.22
64602;BME280;51013;42.630;23.192;2023-02-19T05:24:05;92751.91;;;3.00;79.42
64602;BME280;51013;42.630;23.192;2023-02-19T05:26:34;92750.22;;;3.10;79.11
64602;BME280;51013;42.630;23.192;2023-02-19T05:29:01;92744.03;;;3.06;79.06
64602;BME280;51013;42.630;23.192;2023-02-19T05:31:28;92744.13;;;3.00;79.93
64602;BME280;51013;42.630;23.192;2023-02-19T05:33:55;92760.72;;;2.99;79.74
64602;BME280;51013;42.630;23.192;2023-02-19T05:36:22;92756.03;;;3.01;79.56
64602;BME280;51013;42.630;23.192;2023-02-19T05:38:51;92731.81;;;2.87;79.84
64602;BME280;51013;42.630;23.192;2023-02-19T05:41:19;92755.00;;;3.03;79.89
64602;BME280;51013;42.630;23.192;2023-02-19T05:43:48;92755.00;;;3.03;79.87
64602;BME280;51013;42.630;23.192;2023-02-19T05:46:17;92752.75;;;3.15;79.63
64602;BME280;51013;42.630;23.192;2023-02-19T05:48:45;92740.06;;;3.13;79.43
64602;BME280;51013;42.630;23.192;2023-02-19T05:51:14;92751.56;;;3.26;79.51
64602;BME280;51013;42.630;23.192;2023-02-19T05:53:42;92751.28;;;3.28;79.22
64602;BME280;51013;42.630;23.192;2023-02-19T05:56:23;92744.25;;;3.09;79.31
64602;BME280;51013;42.630;23.192;2023-02-19T05:58:53;92767.72;;;3.23;79.35
64602;BME280;51013;42.630;23.192;2023-02-19T06:01:22;92756.19;;;3.29;79.79
64602;BME280;51013;42.630;23.192;2023-02-19T06:03:49;92772.00;;;3.33;80.31
64602;BME280;51013;42.630;23.192;2023-02-19T06:06:17;92769.47;;;3.28;80.32
64602;BME280;51013;42.630;23.192;2023-02-19T06:08:44;92780.91;;;3.27;80.31
64602;BME280;51013;42.630;23.192;2023-02-19T06:11:11;92784.19;;;3.32;80.12
64602;BME280;51013;42.630;23.192;2023-02-19T06:13:38;92779.22;;;3.36;80.30
64602;BME280;51013;42.630;23.192;2023-02-19T06:16:06;92784.06;;;3.42;79.96
64602;BME280;51013;42.630;23.192;2023-02-19T06:18:33;92776.97;;;3.48;79.68
64602;BME280;51013;42.630;23.192;2023-02-19T06:21:00;92781.19;;;3.44;80.05
64602;BME280;51013;42.630;23.192;2023-02-19T06:23:27;92779.84;;;3.47;80.00
64602;BME280;51013;42.630;23.192;2023-02-19T06:25:54;92781.13;;;3.49;80.29
64602;BME280;51013;42.630;23.192;2023-02-19T06:28:21;92787.53;;;3.57;80.73
64602;BME280;51013;42.630;23.192;2023-02-19T06:30:47;92789.28;;;3.61;80.63
64602;BME280;51013;42.630;23.192;2023-02-19T06:33:15;92782.25;;;3.62;80.93
64602;BME280;51013;42.630;23.192;2023-02-19T06:35:42;92786.53;;;3.72;80.34
64602;BME280;51013;42.630;23.192;2023-02-19T06:38:09;92787.50;;;3.76;80.50
64602;BME280;51013;42.630;23.192;2023-02-19T06:40:35;92779.22;;;3.74;80.75
64602;BME280;51013;42.630;23.192;2023-02-19T06:43:02;92772.88;;;3.80;80.62
64602;BME280;51013;42.630;23.192;2023-02-19T06:45:29;92782.16;;;3.86;80.63
64602;BME280;51013;42.630;23.192;2023-02-19T06:47:55;92770.13;;;3.90;81.04
64602;BME280;51013;42.630;23.192;2023-02-19T06:50:24;92787.13;;;3.83;80.97
64602;BME280;51013;42.630;23.192;2023-02-19T06:52:50;92787.84;;;3.88;81.41
64602;BME280;51013;42.630;23.192;2023-02-19T06:55:17;92780.47;;;3.95;81.21
64602;BME280;51013;42.630;23.192;2023-02-19T06:57:44;92775.16;;;4.00;81.49
64602;BME280;51013;42.630;23.192;2023-02-19T07:00:11;92781.06;;;4.06;81.83
64602;BME280;51013;42.630;23.192;2023-02-19T07:02:37;92777.81;;;4.14;81.79
64602;BME280;51013;42.630;23.192;2023-02-19T07:05:05;92772.03;;;4.17;81.89
64602;BME280;51013;42.630;23.192;2023-02-19T07:07:33;92773.59;;;4.18;82.09
64602;BME280;51013;42.630;23.192;2023-02-19T07:10:00;92725.94;;;3.90;82.81
64602;BME280;51013;42.630;23.192;2023-02-19T07:12:27;92780.84;;;4.35;82.71
64602;BME280;51013;42.630;23.192;2023-02-19T07:14:54;92777.41;;;4.40;82.46
64602;BME280;51013;42.630;23.192;2023-02-19T07:17:21;92778.53;;;4.48;82.39
64602;BME280;51013;42.630;23.192;2023-02-19T07:19:47;92778.84;;;4.60;81.06
64602;BME280;51013;42.630;23.192;2023-02-19T07:22:14;92766.50;;;4.66;81.85
64602;BME280;51013;42.630;23.192;2023-02-19T07:24:42;92776.84;;;4.85;82.16
64602;BME280;51013;42.630;23.192;2023-02-19T07:27:09;92767.09;;;5.04;80.66
64602;BME280;51013;42.630;23.192;2023-02-19T07:29:35;92772.00;;;5.19;79.86
64602;BME280;51013;42.630;23.192;2023-02-19T07:32:02;92775.06;;;5.35;79.75
64602;BME280;51013;42.630;23.192;2023-02-19T07:34:29;92769.78;;;5.49;79.52
64602;BME280;51013;42.630;23.192;2023-02-19T07:36:56;92766.94;;;5.73;77.60
64602;BME280;51013;42.630;23.192;2023-02-19T07:39:22;92762.53;;;6.19;72.72
64602;BME280;51013;42.630;23.192;2023-02-19T07:41:50;92764.00;;;6.74;67.80
64602;BME280;51013;42.630;23.192;2023-02-19T07:44:17;92763.47;;;7.03;67.51
64602;BME280;51013;42.630;23.192;2023-02-19T07:46:44;92767.66;;;7.21;65.34
64602;BME280;51013;42.630;23.192;2023-02-19T07:49:11;92764.50;;;7.51;63.30
64602;BME280;51013;42.630;23.192;2023-02-19T07:51:37;92756.66;;;7.68;63.35
64602;BME280;51013;42.630;23.192;2023-02-19T07:54:05;92763.91;;;7.89;61.48
64602;BME280;51013;42.630;23.192;2023-02-19T07:56:33;92762.91;;;8.28;60.05
64602;BME280;51013;42.630;23.192;2023-02-19T07:59:01;92759.97;;;8.38;60.56
64602;BME280;51013;42.630;23.192;2023-02-19T08:01:28;92759.19;;;8.55;59.11
64602;BME280;51013;42.630;23.192;2023-02-19T08:04:10;92757.25;;;8.82;57.99
64602;BME280;51013;42.630;23.192;2023-02-19T08:06:37;92745.56;;;9.09;56.14
64602;BME280;51013;42.630;23.192;2023-02-19T08:09:04;92746.38;;;9.31;55.55
64602;BME280;51013;42.630;23.192;2023-02-19T08:11:31;92738.88;;;9.20;56.04
64602;BME280;51013;42.630;23.192;2023-02-19T08:14:16;92742.25;;;9.21;56.97
64602;BME280;51013;42.630;23.192;2023-02-19T08:16:47;92753.28;;;9.35;56.33
64602;BME280;51013;42.630;23.192;2023-02-19T08:19:14;92753.28;;;9.56;54.79
64602;BME280;51013;42.630;23.192;2023-02-19T08:21:41;92757.78;;;9.77;54.69
64602;BME280;51013;42.630;23.192;2023-02-19T08:24:07;92762.84;;;9.82;54.27
64602;BME280;51013;42.630;23.192;2023-02-19T08:26:34;92742.53;;;9.91;52.10
64602;BME280;51013;42.630;23.192;2023-02-19T08:29:02;92771.44;;;10.03;52.34
64602;BME280;51013;42.630;23.192;2023-02-19T08:31:31;92757.97;;;9.93;52.43
64602;BME280;51013;42.630;23.192;2023-02-19T08:34:00;92740.47;;;9.97;52.54
64602;BME280;51013;42.630;23.192;2023-02-19T08:36:26;92761.78;;;10.16;52.59
64602;BME280;51013;42.630;23.192;2023-02-19T08:38:54;92763.38;;;10.09;52.04
64602;BME280;51013;42.630;23.192;2023-02-19T08:41:20;92761.00;;;10.37;51.26
64602;BME280;51013;42.630;23.192;2023-02-19T08:43:47;92760.56;;;10.35;52.05
64602;BME280;51013;42.630;23.192;2023-02-19T08:46:14;92758.94;;;10.42;51.39
64602;BME280;51013;42.630;23.192;2023-02-19T08:48:43;92752.84;;;10.63;51.89
64602;BME280;51013;42.630;23.192;2023-02-19T08:51:10;92748.03;;;10.65;50.41
64602;BME280;51013;42.630;23.192;2023-02-19T08:53:38;92746.28;;;10.69;50.58
64602;BME280;51013;42.630;23.192;2023-02-19T08:56:05;92749.47;;;10.75;51.85
64602;BME280;51013;42.630;23.192;2023-02-19T08:58:33;92747.72;;;10.67;51.83
64602;BME280;51013;42.630;23.192;2023-02-19T09:01:00;92732.38;;;10.69;52.93
64602;BME280;51013;42.630;23.192;2023-02-19T09:03:27;92736.53;;;10.82;52.57
64602;BME280;51013;42.630;23.192;2023-02-19T09:05:55;92725.03;;;10.74;53.35
64602;BME280;51013;42.630;23.192;2023-02-19T09:08:21;92726.81;;;10.95;52.14
64602;BME280;51013;42.630;23.192;2023-02-19T09:10:56;92725.47;;;10.89;53.32
64602;BME280;51013;42.630;23.192;2023-02-19T09:13:23;92713.44;;;10.88;53.11
64602;BME280;51013;42.630;23.192;2023-02-19T09:15:50;92714.00;;;11.06;51.98
64602;BME280;51013;42.630;23.192;2023-02-19T09:18:16;92715.44;;;11.03;51.22
64602;BME280;51013;42.630;23.192;2023-02-19T09:20:43;92711.25;;;11.14;51.08
64602;BME280;51013;42.630;23.192;2023-02-19T09:23:11;92714.88;;;11.10;51.46
64602;BME280;51013;42.630;23.192;2023-02-19T09:25:38;92708.72;;;11.30;50.25
64602;BME280;51013;42.630;23.192;2023-02-19T09:28:04;92711.91;;;11.23;50.19
64602;BME280;51013;42.630;23.192;2023-02-19T09:30:31;92708.28;;;11.28;49.82
64602;BME280;51013;42.630;23.192;2023-02-19T09:32:59;92702.59;;;11.26;49.30
64602;BME280;51013;42.630;23.192;2023-02-19T09:35:25;92697.94;;;11.35;49.46
64602;BME280;51013;42.630;23.192;2023-02-19T09:37:52;92692.50;;;11.28;49.55
64602;BME280;51013;42.630;23.192;2023-02-19T09:40:21;92701.56;;;11.43;50.24
64602;BME280;51013;42.630;23.192;2023-02-19T09:42:48;92697.94;;;11.48;49.67
64602;BME280;51013;42.630;23.192;2023-02-19T09:45:22;92692.13;;;11.54;49.41
64602;BME280;51013;42.630;23.192;2023-02-19T09:47:53;92680.53;;;11.71;49.92
64602;BME280;51013;42.630;23.192;2023-02-19T09:50:26;92683.03;;;11.80;48.81
64602;BME280;51013;42.630;23.192;2023-02-19T09:52:59;92678.53;;;11.93;49.35
64602;BME280;51013;42.630;23.192;2023-02-19T09:55:33;92675.06;;;12.05;48.15
64602;BME280;51013;42.630;23.192;2023-02-19T09:58:01;92662.06;;;12.12;49.18
64602;BME280;51013;42.630;23.192;2023-02-19T10:00:32;92654.44;;;12.22;48.25
64602;BME280;51013;42.630;23.192;2023-02-19T10:03:04;92648.00;;;12.36;46.93
64602;BME280;51013;42.630;23.192;2023-02-19T10:05:31;92648.69;;;12.33;47.27
64602;BME280;51013;42.630;23.192;2023-02-19T10:08:00;92639.25;;;12.32;47.52
64602;BME280;51013;42.630;23.192;2023-02-19T10:10:34;92617.84;;;12.33;47.11
64602;BME280;51013;42.630;23.192;2023-02-19T10:13:17;92633.28;;;12.67;47.34
64602;BME280;51013;42.630;23.192;2023-02-19T10:15:46;92621.66;;;12.68;44.54
64602;BME280;51013;42.630;23.192;2023-02-19T10:18:16;92634.13;;;12.87;46.39
64602;BME280;51013;42.630;23.192;2023-02-19T10:20:44;92626.97;;;12.87;44.70
64602;BME280;51013;42.630;23.192;2023-02-19T10:23:13;92624.94;;;12.80;44.92
64602;BME280;51013;42.630;23.192;2023-02-19T10:25:45;92607.53;;;12.76;46.80
64602;BME280;51013;42.630;23.192;2023-02-19T10:28:14;92618.19;;;12.99;45.73
64602;BME280;51013;42.630;23.192;2023-02-19T10:30:42;92612.88;;;13.15;44.85
64602;BME280;51013;42.630;23.192;2023-02-19T10:33:11;92610.06;;;13.08;44.71
64602;BME280;51013;42.630;23.192;2023-02-19T10:35:51;92601.94;;;12.97;44.77
64602;BME280;51013;42.630;23.192;2023-02-19T10:38:20;92595.09;;;13.12;46.49
64602;BME280;51013;42.630;23.192;2023-02-19T10:40:52;92584.53;;;13.12;44.78
64602;BME280;51013;42.630;23.192;2023-02-19T10:43:25;92579.41;;;13.19;45.74
64602;BME280;51013;42.630;23.192;2023-02-19T10:45:58;92577.56;;;13.39;44.53
64602;BME280;51013;42.630;23.192;2023-02-19T10:48:28;92567.91;;;13.66;43.44
64602;BME280;51013;42.630;23.192;2023-02-19T10:50:58;92564.84;;;13.64;44.05
64602;BME280;51013;42.630;23.192;2023-02-19T10:53:39;92533.63;;;13.47;43.30
64602;BME280;51013;42.630;23.192;2023-02-19T10:56:09;92546.44;;;13.68;43.14
64602;BME280;51013;42.630;23.192;2023-02-19T10:58:38;92546.75;;;13.86;43.21
64602;BME280;51013;42.630;23.192;2023-02-19T11:01:12;92544.28;;;13.96;42.88
64602;BME280;51013;42.630;23.192;2023-02-19T11:03:39;92541.22;;;13.94;42.12
64602;BME280;51013;42.630;23.192;2023-02-19T11:06:08;92538.47;;;14.10;41.46
64602;BME280;51013;42.630;23.192;2023-02-19T11:08:45;92542.34;;;14.16;42.98
64602;BME280;51013;42.630;23.192;2023-02-19T11:11:27;92528.06;;;14.21;41.90
64602;BME280;51013;42.630;23.192;2023-02-19T11:13:55;92524.66;;;14.20;42.15
64602;BME280;51013;42.630;23.192;2023-02-19T11:16:23;92520.00;;;14.37;40.90
64602;BME280;51013;42.630;23.192;2023-02-19T11:18:54;92509.22;;;14.49;43.51
64602;BME280;51013;42.630;23.192;2023-02-19T11:21:24;92509.09;;;14.65;41.59
64602;BME280;51013;42.630;23.192;2023-02-19T11:23:54;92504.50;;;14.89;41.09
64602;BME280;51013;42.630;23.192;2023-02-19T11:26:24;92503.31;;;14.86;40.05
64602;BME280;51013;42.630;23.192;2023-02-19T11:28:55;92490.59;;;14.95;39.42
64602;BME280;51013;42.630;23.192;2023-02-19T11:31:23;92487.25;;;14.98;39.99
64602;BME280;51013;42.630;23.192;2023-02-19T11:33:54;92478.44;;;15.21;38.89
64602;BME280;51013;42.630;23.192;2023-02-19T11:36:30;92483.47;;;15.33;38.62
64602;BME280;51013;42.630;23.192;2023-02-19T11:39:00;92419.94;;;14.96;38.75
64602;BME280;51013;42.630;23.192;2023-02-19T11:42:02;92481.03;;;15.55;39.33
64602;BME280;51013;42.630;23.192;2023-02-19T11:44:42;92458.84;;;15.67;38.03
64602;BME280;51013;42.630;23.192;2023-02-19T11:47:50;92470.00;;;15.87;37.50
64602;BME280;51013;42.630;23.192;2023-02-19T11:50:26;92465.91;;;15.93;38.63
64602;BME280;51013;42.630;23.192;2023-02-19T11:53:03;92463.53;;;15.80;36.49
64602;BME280;51013;42.630;23.192;2023-02-19T11:55:48;92455.63;;;15.84;38.92
64602;BME280;51013;42.630;23.192;2023-02-19T11:58:42;92462.56;;;16.03;36.79
64602;BME280;51013;42.630;23.192;2023-02-19T12:01:20;92440.25;;;16.08;36.25
64602;BME280;51013;42.630;23.192;2023-02-19T12:06:44;92456.97;;;16.15;34.43
64602;BME280;51013;42.630;23.192;2023-02-19T12:09:26;92451.31;;;16.17;35.62
64602;BME280;51013;42.630;23.192;2023-02-19T12:12:16;92440.88;;;16.38;36.03
64602;BME280;51013;42.630;23.192;2023-02-19T12:17:57;92437.84;;;16.43;35.82
64602;BME280;51013;42.630;23.192;2023-02-19T12:20:36;92439.38;;;16.48;36.21
64602;BME280;51013;42.630;23.192;2023-02-19T12:23:25;92428.81;;;16.55;34.73
64602;BME280;51013;42.630;23.192;2023-02-19T12:25:59;92418.91;;;16.41;34.68
64602;BME280;51013;42.630;23.192;2023-02-19T12:28:49;92410.59;;;16.50;34.87
64602;BME280;51013;42.630;23.192;2023-02-19T12:34:43;92396.81;;;16.89;34.78
64602;BME280;51013;42.630;23.192;2023-02-19T12:37:25;92382.75;;;16.89;34.25
64602;BME280;51013;42.630;23.192;2023-02-19T12:40:09;92377.91;;;17.12;34.66
64602;BME280;51013;42.630;23.192;2023-02-19T12:42:51;92366.16;;;17.17;33.82
64602;BME280;51013;42.630;23.192;2023-02-19T12:45:26;92372.22;;;17.14;33.85
64602;BME280;51013;42.630;23.192;2023-02-19T12:47:59;92362.00;;;17.27;33.85
64602;BME280;51013;42.630;23.192;2023-02-19T12:50:29;92321.00;;;17.06;32.82
64602;BME280;51013;42.630;23.192;2023-02-19T12:53:00;92347.22;;;17.43;32.99
64602;BME280;51013;42.630;23.192;2023-02-19T12:55:31;92358.22;;;17.67;33.13
64602;BME280;51013;42.630;23.192;2023-02-19T12:58:02;92357.84;;;17.79;35.86
64602;BME280;51013;42.630;23.192;2023-02-19T13:00:36;92336.59;;;17.65;32.22
64602;BME280;51013;42.630;23.192;2023-02-19T13:03:11;92349.88;;;17.90;33.42
64602;BME280;51013;42.630;23.192;2023-02-19T13:05:49;92343.44;;;17.95;32.06
64602;BME280;51013;42.630;23.192;2023-02-19T13:08:22;92347.97;;;18.05;32.36
64602;BME280;51013;42.630;23.192;2023-02-19T13:10:54;92335.03;;;18.14;32.24
64602;BME280;51013;42.630;23.192;2023-02-19T13:13:25;92316.03;;;18.19;31.55
64602;BME280;51013;42.630;23.192;2023-02-19T13:15:56;92337.97;;;18.52;32.77
64602;BME280;51013;42.630;23.192;2023-02-19T13:18:27;92323.94;;;18.45;32.02
64602;BME280;51013;42.630;23.192;2023-02-19T13:20:58;92318.59;;;18.48;32.87
64602;BME280;51013;42.630;23.192;2023-02-19T13:23:27;92311.72;;;18.58;30.78
64602;BME280;51013;42.630;23.192;2023-02-19T13:26:28;92305.19;;;18.80;31.45
64602;BME280;51013;42.630;23.192;2023-02-19T13:29:11;92299.63;;;18.42;31.24
64602;BME280;51013;42.630;23.192;2023-02-19T13:32:01;92287.78;;;18.61;31.02